sensor_id;sensor_type;location;lat;lon;timestamp;P1;durP1;ratioP1;P2;durP2;ratioP2
32365;SDS011;18837;46.832;16.838;2022-09-09T00:01:49;0.73;;;0.73;;
32365;SDS011;18837;46.832;16.838;2022-09-09T00:04:28;1.10;;;0.80;;
32365;SDS011;18837;46.832;16.838;2022-09-09T00:09:48;0.73;;;0.73;;
32365;SDS011;18837;46.832;16.838;2022-09-09T00:16:03;0.90;;;0.60;;
32365;SDS011;18837;46.832;16.838;2022-09-09T00:21:21;0.70;;;0.70;;
32365;SDS011;18837;46.832;16.838;2022-09-09T00:23:53;1.43;;;0.80;;
32365;SDS011;18837;46.832;16.838;2022-09-09T00:26:30;0.90;;;0.80;;
32365;SDS011;18837;46.832;16.838;2022-09-09T00:29:00;0.53;;;0.53;;
32365;SDS011;18837;46.832;16.838;2022-09-09T00:31:29;1.30;;;0.57;;
32365;SDS011;18837;46.832;16.838;2022-09-09T00:34:02;1.50;;;0.83;;
32365;SDS011;18837;46.832;16.838;2022-09-09T00:36:41;0.60;;;0.60;;
32365;SDS011;18837;46.832;16.838;2022-09-09T00:39:10;0.70;;;0.60;;
32365;SDS011;18837;46.832;16.838;2022-09-09T00:42:00;0.87;;;0.57;;
32365;SDS011;18837;46.832;16.838;2022-09-09T00:53:05;0.50;;;0.40;;
32365;SDS011;18837;46.832;16.838;2022-09-09T00:58:15;1.00;;;0.43;;
32365;SDS011;18837;46.832;16.838;2022-09-09T01:00:42;1.23;;;0.60;;
32365;SDS011;18837;46.832;16.838;2022-09-09T01:03:19;0.40;;;0.40;;
32365;SDS011;18837;46.832;16.838;2022-09-09T01:14:45;1.50;;;0.47;;
32365;SDS011;18837;46.832;16.838;2022-09-09T01:17:15;2.97;;;0.67;;
32365;SDS011;18837;46.832;16.838;2022-09-09T01:28:10;0.60;;;0.60;;
32365;SDS011;18837;46.832;16.838;2022-09-09T01:30:41;0.50;;;0.50;;
32365;SDS011;18837;46.832;16.838;2022-09-09T01:33:07;0.47;;;0.40;;
32365;SDS011;18837;46.832;16.838;2022-09-09T01:35:43;0.47;;;0.47;;
32365;SDS011;18837;46.832;16.838;2022-09-09T01:38:16;0.70;;;0.50;;
32365;SDS011;18837;46.832;16.838;2022-09-09T01:40:43;0.40;;;0.40;;
32365;SDS011;18837;46.832;16.838;2022-09-09T01:43:10;0.50;;;0.50;;
32365;SDS011;18837;46.832;16.838;2022-09-09T01:45:36;0.40;;;0.40;;
32365;SDS011;18837;46.832;16.838;2022-09-09T01:48:03;1.40;;;0.50;;
32365;SDS011;18837;46.832;16.838;2022-09-09T01:50:29;0.53;;;0.43;;
32365;SDS011;18837;46.832;16.838;2022-09-09T01:52:56;0.50;;;0.50;;
32365;SDS011;18837;46.832;16.838;2022-09-09T01:55:31;0.50;;;0.50;;
32365;SDS011;18837;46.832;16.838;2022-09-09T02:00:56;0.60;;;0.40;;
32365;SDS011;18837;46.832;16.838;2022-09-09T02:03:28;0.40;;;0.40;;
32365;SDS011;18837;46.832;16.838;2022-09-09T02:08:50;0.40;;;0.40;;
32365;SDS011;18837;46.832;16.838;2022-09-09T02:11:21;0.60;;;0.40;;
32365;SDS011;18837;46.832;16.838;2022-09-09T02:13:48;0.40;;;0.40;;
32365;SDS011;18837;46.832;16.838;2022-09-09T02:16:24;1.63;;;0.50;;
32365;SDS011;18837;46.832;16.838;2022-09-09T02:21:28;0.63;;;0.40;;
32365;SDS011;18837;46.832;16.838;2022-09-09T02:23:55;0.30;;;0.30;;
32365;SDS011;18837;46.832;16.838;2022-09-09T02:26:25;0.40;;;0.40;;
32365;SDS011;18837;46.832;16.838;2022-09-09T02:28:52;0.60;;;0.40;;
32365;SDS011;18837;46.832;16.838;2022-09-09T02:31:24;0.50;;;0.40;;
32365;SDS011;18837;46.832;16.838;2022-09-09T02:33:52;0.50;;;0.50;;
32365;SDS011;18837;46.832;16.838;2022-09-09T02:36:21;0.30;;;0.30;;
32365;SDS011;18837;46.832;16.838;2022-09-09T02:38:49;0.40;;;0.40;;
32365;SDS011;18837;46.832;16.838;2022-09-09T02:41:23;1.17;;;0.50;;
32365;SDS011;18837;46.832;16.838;2022-09-09T02:43:53;0.40;;;0.40;;
32365;SDS011;18837;46.832;16.838;2022-09-09T02:46:23;0.40;;;0.40;;
32365;SDS011;18837;46.832;16.838;2022-09-09T02:49:01;0.73;;;0.50;;
32365;SDS011;18837;46.832;16.838;2022-09-09T02:54:28;0.87;;;0.40;;
32365;SDS011;18837;46.832;16.838;2022-09-09T02:56:59;0.50;;;0.40;;
32365;SDS011;18837;46.832;16.838;2022-09-09T02:59:31;0.70;;;0.60;;
32365;SDS011;18837;46.832;16.838;2022-09-09T03:01:56;0.67;;;0.50;;
32365;SDS011;18837;46.832;16.838;2022-09-09T03:04:22;1.10;;;0.40;;
32365;SDS011;18837;46.832;16.838;2022-09-09T03:06:51;1.50;;;0.40;;
32365;SDS011;18837;46.832;16.838;2022-09-09T03:09:19;1.30;;;0.50;;
32365;SDS011;18837;46.832;16.838;2022-09-09T03:11:45;0.47;;;0.47;;
32365;SDS011;18837;46.832;16.838;2022-09-09T03:14:11;0.93;;;0.30;;
32365;SDS011;18837;46.832;16.838;2022-09-09T03:16:37;0.67;;;0.57;;
32365;SDS011;18837;46.832;16.838;2022-09-09T03:19:03;0.40;;;0.40;;
32365;SDS011;18837;46.832;16.838;2022-09-09T03:21:28;0.77;;;0.40;;
32365;SDS011;18837;46.832;16.838;2022-09-09T03:23:54;1.63;;;0.50;;
32365;SDS011;18837;46.832;16.838;2022-09-09T03:26:20;1.00;;;0.40;;
32365;SDS011;18837;46.832;16.838;2022-09-09T03:28:46;0.60;;;0.60;;
32365;SDS011;18837;46.832;16.838;2022-09-09T03:31:12;0.60;;;0.50;;
32365;SDS011;18837;46.832;16.838;2022-09-09T03:33:37;1.00;;;0.40;;
32365;SDS011;18837;46.832;16.838;2022-09-09T03:36:03;1.17;;;0.50;;
32365;SDS011;18837;46.832;16.838;2022-09-09T03:38:30;0.53;;;0.53;;
32365;SDS011;18837;46.832;16.838;2022-09-09T03:40:57;0.50;;;0.50;;
32365;SDS011;18837;46.832;16.838;2022-09-09T03:43:24;1.03;;;0.43;;
32365;SDS011;18837;46.832;16.838;2022-09-09T03:45:51;2.10;;;0.47;;
32365;SDS011;18837;46.832;16.838;2022-09-09T03:48:17;1.07;;;0.60;;
32365;SDS011;18837;46.832;16.838;2022-09-09T03:50:47;0.50;;;0.40;;
32365;SDS011;18837;46.832;16.838;2022-09-09T03:53:14;1.33;;;0.60;;
32365;SDS011;18837;46.832;16.838;2022-09-09T03:55:45;0.73;;;0.40;;
32365;SDS011;18837;46.832;16.838;2022-09-09T03:58:12;0.70;;;0.50;;
32365;SDS011;18837;46.832;16.838;2022-09-09T04:00:39;0.70;;;0.43;;
32365;SDS011;18837;46.832;16.838;2022-09-09T04:03:10;0.60;;;0.50;;
32365;SDS011;18837;46.832;16.838;2022-09-09T04:05:36;0.50;;;0.50;;
32365;SDS011;18837;46.832;16.838;2022-09-09T04:08:06;0.83;;;0.70;;
32365;SDS011;18837;46.832;16.838;2022-09-09T04:10:32;0.40;;;0.40;;
32365;SDS011;18837;46.832;16.838;2022-09-09T04:12:58;0.87;;;0.60;;
32365;SDS011;18837;46.832;16.838;2022-09-09T04:15:24;0.80;;;0.40;;
32365;SDS011;18837;46.832;16.838;2022-09-09T04:17:50;0.40;;;0.40;;
32365;SDS011;18837;46.832;16.838;2022-09-09T04:20:16;0.47;;;0.47;;
32365;SDS011;18837;46.832;16.838;2022-09-09T04:22:41;0.80;;;0.60;;
32365;SDS011;18837;46.832;16.838;2022-09-09T04:25:07;1.03;;;0.40;;
32365;SDS011;18837;46.832;16.838;2022-09-09T04:27:33;0.50;;;0.50;;
32365;SDS011;18837;46.832;16.838;2022-09-09T04:29:59;2.37;;;0.43;;
32365;SDS011;18837;46.832;16.838;2022-09-09T04:32:24;0.50;;;0.50;;
32365;SDS011;18837;46.832;16.838;2022-09-09T04:34:53;0.80;;;0.50;;
32365;SDS011;18837;46.832;16.838;2022-09-09T04:37:18;0.50;;;0.50;;
32365;SDS011;18837;46.832;16.838;2022-09-09T04:39:44;0.60;;;0.60;;
32365;SDS011;18837;46.832;16.838;2022-09-09T04:42:16;0.57;;;0.50;;
32365;SDS011;18837;46.832;16.838;2022-09-09T04:45:11;0.60;;;0.60;;
32365;SDS011;18837;46.832;16.838;2022-09-09T04:47:37;0.63;;;0.60;;
32365;SDS011;18837;46.832;16.838;2022-09-09T04:50:03;1.97;;;0.60;;
32365;SDS011;18837;46.832;16.838;2022-09-09T04:52:30;1.67;;;0.70;;
32365;SDS011;18837;46.832;16.838;2022-09-09T04:54:55;0.57;;;0.50;;
32365;SDS011;18837;46.832;16.838;2022-09-09T04:57:21;0.67;;;0.60;;
32365;SDS011;18837;46.832;16.838;2022-09-09T04:59:47;1.83;;;0.60;;
32365;SDS011;18837;46.832;16.838;2022-09-09T05:02:13;1.17;;;0.67;;
32365;SDS011;18837;46.832;16.838;2022-09-09T05:04:38;1.37;;;0.70;;
32365;SDS011;18837;46.832;16.838;2022-09-09T05:07:04;1.17;;;0.57;;
32365;SDS011;18837;46.832;16.838;2022-09-09T05:09:29;0.93;;;0.70;;
32365;SDS011;18837;46.832;16.838;2022-09-09T05:11:55;3.37;;;1.07;;
32365;SDS011;18837;46.832;16.838;2022-09-09T05:14:21;2.23;;;1.50;;
32365;SDS011;18837;46.832;16.838;2022-09-09T05:16:47;1.63;;;1.30;;
32365;SDS011;18837;46.832;16.838;2022-09-09T05:19:20;5.83;;;1.50;;
32365;SDS011;18837;46.832;16.838;2022-09-09T05:21:46;2.87;;;1.00;;
32365;SDS011;18837;46.832;16.838;2022-09-09T05:24:12;5.73;;;1.20;;
32365;SDS011;18837;46.832;16.838;2022-09-09T05:26:38;2.80;;;1.47;;
32365;SDS011;18837;46.832;16.838;2022-09-09T05:29:04;1.10;;;0.90;;
32365;SDS011;18837;46.832;16.838;2022-09-09T05:31:31;3.30;;;1.10;;
32365;SDS011;18837;46.832;16.838;2022-09-09T05:33:58;4.30;;;1.80;;
32365;SDS011;18837;46.832;16.838;2022-09-09T05:36:24;1.40;;;1.30;;
32365;SDS011;18837;46.832;16.838;2022-09-09T05:38:50;3.70;;;1.27;;
32365;SDS011;18837;46.832;16.838;2022-09-09T05:41:16;3.50;;;1.13;;
32365;SDS011;18837;46.832;16.838;2022-09-09T05:43:42;3.03;;;1.10;;
32365;SDS011;18837;46.832;16.838;2022-09-09T05:46:10;2.20;;;1.00;;
32365;SDS011;18837;46.832;16.838;2022-09-09T05:48:42;2.43;;;1.10;;
32365;SDS011;18837;46.832;16.838;2022-09-09T05:51:13;2.50;;;1.00;;
32365;SDS011;18837;46.832;16.838;2022-09-09T05:53:44;2.87;;;1.30;;
32365;SDS011;18837;46.832;16.838;2022-09-09T05:56:17;2.07;;;1.10;;
32365;SDS011;18837;46.832;16.838;2022-09-09T05:58:45;2.10;;;1.07;;
32365;SDS011;18837;46.832;16.838;2022-09-09T06:01:18;1.10;;;1.00;;
32365;SDS011;18837;46.832;16.838;2022-09-09T06:03:49;1.17;;;1.03;;
32365;SDS011;18837;46.832;16.838;2022-09-09T06:06:17;1.80;;;1.20;;
32365;SDS011;18837;46.832;16.838;2022-09-09T06:08:54;1.20;;;1.00;;
32365;SDS011;18837;46.832;16.838;2022-09-09T06:11:27;2.47;;;0.90;;
32365;SDS011;18837;46.832;16.838;2022-09-09T06:13:57;1.53;;;0.90;;
32365;SDS011;18837;46.832;16.838;2022-09-09T06:16:24;1.00;;;0.90;;
32365;SDS011;18837;46.832;16.838;2022-09-09T06:18:52;1.20;;;0.90;;
32365;SDS011;18837;46.832;16.838;2022-09-09T06:21:37;2.60;;;1.20;;
32365;SDS011;18837;46.832;16.838;2022-09-09T06:24:05;3.17;;;1.30;;
32365;SDS011;18837;46.832;16.838;2022-09-09T06:26:32;1.07;;;0.83;;
32365;SDS011;18837;46.832;16.838;2022-09-09T06:29:00;0.90;;;0.80;;
32365;SDS011;18837;46.832;16.838;2022-09-09T06:31:28;2.23;;;1.00;;
32365;SDS011;18837;46.832;16.838;2022-09-09T06:33:55;1.20;;;1.03;;
32365;SDS011;18837;46.832;16.838;2022-09-09T06:36:23;1.57;;;1.00;;
32365;SDS011;18837;46.832;16.838;2022-09-09T06:38:49;1.10;;;0.90;;
32365;SDS011;18837;46.832;16.838;2022-09-09T06:41:16;0.93;;;0.73;;
32365;SDS011;18837;46.832;16.838;2022-09-09T06:43:44;1.90;;;1.10;;
32365;SDS011;18837;46.832;16.838;2022-09-09T06:48:41;1.10;;;1.00;;
32365;SDS011;18837;46.832;16.838;2022-09-09T06:51:16;1.13;;;0.90;;
32365;SDS011;18837;46.832;16.838;2022-09-09T06:53:44;2.23;;;1.60;;
32365;SDS011;18837;46.832;16.838;2022-09-09T06:58:43;1.40;;;1.23;;
32365;SDS011;18837;46.832;16.838;2022-09-09T07:01:12;2.00;;;1.70;;
32365;SDS011;18837;46.832;16.838;2022-09-09T07:03:39;2.73;;;1.77;;
32365;SDS011;18837;46.832;16.838;2022-09-09T07:06:05;1.97;;;1.77;;
32365;SDS011;18837;46.832;16.838;2022-09-09T07:08:32;2.20;;;1.93;;
32365;SDS011;18837;46.832;16.838;2022-09-09T07:11:02;2.33;;;1.83;;
32365;SDS011;18837;46.832;16.838;2022-09-09T07:13:32;2.40;;;1.60;;
32365;SDS011;18837;46.832;16.838;2022-09-09T07:16:09;1.90;;;1.67;;
32365;SDS011;18837;46.832;16.838;2022-09-09T07:18:41;2.67;;;1.77;;
32365;SDS011;18837;46.832;16.838;2022-09-09T07:21:08;2.40;;;1.73;;
32365;SDS011;18837;46.832;16.838;2022-09-09T07:23:35;2.53;;;2.03;;
32365;SDS011;18837;46.832;16.838;2022-09-09T07:26:01;1.83;;;1.60;;
32365;SDS011;18837;46.832;16.838;2022-09-09T07:28:28;1.67;;;1.57;;
32365;SDS011;18837;46.832;16.838;2022-09-09T07:30:56;1.50;;;1.40;;
32365;SDS011;18837;46.832;16.838;2022-09-09T07:33:41;3.57;;;1.70;;
32365;SDS011;18837;46.832;16.838;2022-09-09T07:36:27;1.60;;;1.40;;
32365;SDS011;18837;46.832;16.838;2022-09-09T07:39:34;1.70;;;1.60;;
32365;SDS011;18837;46.832;16.838;2022-09-09T07:42:00;2.37;;;1.50;;
32365;SDS011;18837;46.832;16.838;2022-09-09T07:44:25;2.60;;;1.70;;
32365;SDS011;18837;46.832;16.838;2022-09-09T07:46:56;1.63;;;1.43;;
32365;SDS011;18837;46.832;16.838;2022-09-09T07:49:25;2.53;;;1.40;;
32365;SDS011;18837;46.832;16.838;2022-09-09T07:51:53;1.70;;;1.60;;
32365;SDS011;18837;46.832;16.838;2022-09-09T07:54:39;2.00;;;1.33;;
32365;SDS011;18837;46.832;16.838;2022-09-09T07:57:05;2.10;;;1.47;;
32365;SDS011;18837;46.832;16.838;2022-09-09T07:59:31;2.70;;;1.60;;
32365;SDS011;18837;46.832;16.838;2022-09-09T08:01:58;1.73;;;1.37;;
32365;SDS011;18837;46.832;16.838;2022-09-09T08:04:25;2.80;;;1.70;;
32365;SDS011;18837;46.832;16.838;2022-09-09T08:09:36;2.03;;;1.33;;
32365;SDS011;18837;46.832;16.838;2022-09-09T08:12:14;1.50;;;1.33;;
32365;SDS011;18837;46.832;16.838;2022-09-09T08:14:41;1.00;;;1.00;;
32365;SDS011;18837;46.832;16.838;2022-09-09T08:17:07;1.53;;;1.30;;
32365;SDS011;18837;46.832;16.838;2022-09-09T08:19:33;1.53;;;1.30;;
32365;SDS011;18837;46.832;16.838;2022-09-09T08:22:02;1.90;;;1.20;;
32365;SDS011;18837;46.832;16.838;2022-09-09T08:24:28;1.90;;;0.90;;
32365;SDS011;18837;46.832;16.838;2022-09-09T08:26:54;1.20;;;1.10;;
32365;SDS011;18837;46.832;16.838;2022-09-09T08:29:21;1.17;;;1.07;;
32365;SDS011;18837;46.832;16.838;2022-09-09T08:31:52;1.40;;;1.07;;
32365;SDS011;18837;46.832;16.838;2022-09-09T08:34:19;2.67;;;1.37;;
32365;SDS011;18837;46.832;16.838;2022-09-09T08:36:46;1.20;;;1.10;;
32365;SDS011;18837;46.832;16.838;2022-09-09T08:39:14;1.43;;;1.27;;
32365;SDS011;18837;46.832;16.838;2022-09-09T08:48:13;1.30;;;1.20;;
32365;SDS011;18837;46.832;16.838;2022-09-09T08:50:51;3.07;;;1.20;;
32365;SDS011;18837;46.832;16.838;2022-09-09T08:53:22;1.80;;;1.20;;
32365;SDS011;18837;46.832;16.838;2022-09-09T08:58:43;1.40;;;1.00;;
32365;SDS011;18837;46.832;16.838;2022-09-09T09:10:21;0.90;;;0.80;;
32365;SDS011;18837;46.832;16.838;2022-09-09T09:13:14;1.20;;;1.10;;
32365;SDS011;18837;46.832;16.838;2022-09-09T09:15:46;1.00;;;0.90;;
32365;SDS011;18837;46.832;16.838;2022-09-09T09:18:18;0.80;;;0.80;;
32365;SDS011;18837;46.832;16.838;2022-09-09T09:23:27;1.73;;;0.90;;
32365;SDS011;18837;46.832;16.838;2022-09-09T09:26:01;0.93;;;0.83;;
32365;SDS011;18837;46.832;16.838;2022-09-09T09:28:28;1.70;;;0.90;;
32365;SDS011;18837;46.832;16.838;2022-09-09T09:31:00;1.30;;;1.03;;
32365;SDS011;18837;46.832;16.838;2022-09-09T09:33:32;0.80;;;0.80;;
32365;SDS011;18837;46.832;16.838;2022-09-09T09:36:08;1.33;;;0.83;;
32365;SDS011;18837;46.832;16.838;2022-09-09T09:38:35;1.10;;;1.00;;
32365;SDS011;18837;46.832;16.838;2022-09-09T09:41:01;0.80;;;0.80;;
32365;SDS011;18837;46.832;16.838;2022-09-09T09:43:28;1.33;;;0.83;;
32365;SDS011;18837;46.832;16.838;2022-09-09T09:45:58;0.80;;;0.80;;
32365;SDS011;18837;46.832;16.838;2022-09-09T09:48:25;1.27;;;0.90;;
32365;SDS011;18837;46.832;16.838;2022-09-09T09:53:31;2.10;;;1.03;;
32365;SDS011;18837;46.832;16.838;2022-09-09T09:56:00;2.37;;;1.00;;
32365;SDS011;18837;46.832;16.838;2022-09-09T09:58:27;1.77;;;0.70;;
32365;SDS011;18837;46.832;16.838;2022-09-09T10:00:58;2.97;;;0.80;;
32365;SDS011;18837;46.832;16.838;2022-09-09T10:03:29;1.97;;;0.97;;
32365;SDS011;18837;46.832;16.838;2022-09-09T10:05:56;1.13;;;0.90;;
32365;SDS011;18837;46.832;16.838;2022-09-09T10:08:24;0.60;;;0.60;;
32365;SDS011;18837;46.832;16.838;2022-09-09T10:11:02;1.37;;;0.90;;
32365;SDS011;18837;46.832;16.838;2022-09-09T10:13:47;0.87;;;0.80;;
32365;SDS011;18837;46.832;16.838;2022-09-09T10:19:13;0.63;;;0.63;;
32365;SDS011;18837;46.832;16.838;2022-09-09T10:33:08;1.47;;;0.80;;
32365;SDS011;18837;46.832;16.838;2022-09-09T10:38:17;0.93;;;0.83;;
32365;SDS011;18837;46.832;16.838;2022-09-09T10:53:02;1.03;;;0.80;;
32365;SDS011;18837;46.832;16.838;2022-09-09T10:55:56;0.80;;;0.80;;
32365;SDS011;18837;46.832;16.838;2022-09-09T10:58:35;1.27;;;0.87;;
32365;SDS011;18837;46.832;16.838;2022-09-09T11:01:16;0.90;;;0.90;;
32365;SDS011;18837;46.832;16.838;2022-09-09T11:03:48;2.30;;;1.00;;
32365;SDS011;18837;46.832;16.838;2022-09-09T11:06:34;0.70;;;0.70;;
32365;SDS011;18837;46.832;16.838;2022-09-09T11:09:05;0.63;;;0.63;;
32365;SDS011;18837;46.832;16.838;2022-09-09T11:11:39;1.00;;;0.90;;
32365;SDS011;18837;46.832;16.838;2022-09-09T11:14:15;0.90;;;0.70;;
32365;SDS011;18837;46.832;16.838;2022-09-09T11:17:00;2.37;;;0.90;;
32365;SDS011;18837;46.832;16.838;2022-09-09T11:19:55;0.93;;;0.80;;
32365;SDS011;18837;46.832;16.838;2022-09-09T11:22:25;0.83;;;0.70;;
32365;SDS011;18837;46.832;16.838;2022-09-09T11:28:04;1.33;;;0.97;;
32365;SDS011;18837;46.832;16.838;2022-09-09T11:44:39;0.60;;;0.60;;
32365;SDS011;18837;46.832;16.838;2022-09-09T11:47:19;1.20;;;0.80;;
32365;SDS011;18837;46.832;16.838;2022-09-09T11:49:49;0.80;;;0.60;;
32365;SDS011;18837;46.832;16.838;2022-09-09T11:52:34;0.80;;;0.80;;
32365;SDS011;18837;46.832;16.838;2022-09-09T11:58:02;0.90;;;0.80;;
32365;SDS011;18837;46.832;16.838;2022-09-09T12:02:58;0.83;;;0.80;;
32365;SDS011;18837;46.832;16.838;2022-09-09T12:05:24;1.07;;;0.80;;
32365;SDS011;18837;46.832;16.838;2022-09-09T12:08:03;0.70;;;0.70;;
32365;SDS011;18837;46.832;16.838;2022-09-09T12:10:30;0.60;;;0.57;;
32365;SDS011;18837;46.832;16.838;2022-09-09T12:15:51;0.60;;;0.60;;
32365;SDS011;18837;46.832;16.838;2022-09-09T12:18:21;1.70;;;0.70;;
32365;SDS011;18837;46.832;16.838;2022-09-09T12:34:40;1.87;;;0.83;;
32365;SDS011;18837;46.832;16.838;2022-09-09T12:37:21;0.70;;;0.70;;
32365;SDS011;18837;46.832;16.838;2022-09-09T12:39:56;0.60;;;0.60;;
32365;SDS011;18837;46.832;16.838;2022-09-09T12:42:24;0.70;;;0.60;;
32365;SDS011;18837;46.832;16.838;2022-09-09T12:44:52;0.70;;;0.70;;
32365;SDS011;18837;46.832;16.838;2022-09-09T12:47:24;0.73;;;0.73;;
32365;SDS011;18837;46.832;16.838;2022-09-09T12:52:46;1.00;;;0.90;;
32365;SDS011;18837;46.832;16.838;2022-09-09T12:55:18;1.13;;;0.80;;
32365;SDS011;18837;46.832;16.838;2022-09-09T12:57:46;0.93;;;0.70;;
32365;SDS011;18837;46.832;16.838;2022-09-09T13:00:17;0.83;;;0.70;;
32365;SDS011;18837;46.832;16.838;2022-09-09T13:02:48;1.07;;;0.80;;
32365;SDS011;18837;46.832;16.838;2022-09-09T13:05:19;0.70;;;0.70;;
32365;SDS011;18837;46.832;16.838;2022-09-09T13:07:45;0.83;;;0.83;;
32365;SDS011;18837;46.832;16.838;2022-09-09T13:10:12;0.73;;;0.73;;
32365;SDS011;18837;46.832;16.838;2022-09-09T13:12:40;1.00;;;0.83;;
32365;SDS011;18837;46.832;16.838;2022-09-09T13:15:14;1.10;;;0.80;;
32365;SDS011;18837;46.832;16.838;2022-09-09T13:17:49;0.83;;;0.70;;
32365;SDS011;18837;46.832;16.838;2022-09-09T13:20:17;0.70;;;0.70;;
32365;SDS011;18837;46.832;16.838;2022-09-09T13:22:44;1.53;;;0.90;;
32365;SDS011;18837;46.832;16.838;2022-09-09T13:28:03;1.00;;;0.80;;
32365;SDS011;18837;46.832;16.838;2022-09-09T13:30:31;1.10;;;0.90;;
32365;SDS011;18837;46.832;16.838;2022-09-09T13:38:21;1.03;;;0.90;;
32365;SDS011;18837;46.832;16.838;2022-09-09T13:43:30;0.97;;;0.70;;
32365;SDS011;18837;46.832;16.838;2022-09-09T13:46:00;1.47;;;1.00;;
32365;SDS011;18837;46.832;16.838;2022-09-09T13:48:28;0.83;;;0.80;;
32365;SDS011;18837;46.832;16.838;2022-09-09T13:50:59;1.10;;;1.00;;
32365;SDS011;18837;46.832;16.838;2022-09-09T13:53:32;0.93;;;0.93;;
32365;SDS011;18837;46.832;16.838;2022-09-09T13:55:58;1.07;;;0.80;;
32365;SDS011;18837;46.832;16.838;2022-09-09T13:58:24;1.37;;;0.90;;
32365;SDS011;18837;46.832;16.838;2022-09-09T14:00:52;1.00;;;0.90;;
32365;SDS011;18837;46.832;16.838;2022-09-09T14:03:18;1.07;;;0.97;;
32365;SDS011;18837;46.832;16.838;2022-09-09T14:05:45;0.90;;;0.90;;
32365;SDS011;18837;46.832;16.838;2022-09-09T14:08:22;0.90;;;0.90;;
32365;SDS011;18837;46.832;16.838;2022-09-09T14:11:02;1.27;;;0.70;;
32365;SDS011;18837;46.832;16.838;2022-09-09T14:13:28;0.87;;;0.80;;
32365;SDS011;18837;46.832;16.838;2022-09-09T14:15:54;1.07;;;0.60;;
32365;SDS011;18837;46.832;16.838;2022-09-09T14:18:20;0.97;;;0.70;;
32365;SDS011;18837;46.832;16.838;2022-09-09T14:20:48;1.00;;;0.70;;
32365;SDS011;18837;46.832;16.838;2022-09-09T14:23:15;0.83;;;0.80;;
32365;SDS011;18837;46.832;16.838;2022-09-09T14:25:44;0.80;;;0.80;;
32365;SDS011;18837;46.832;16.838;2022-09-09T14:28:11;0.70;;;0.70;;
32365;SDS011;18837;46.832;16.838;2022-09-09T14:30:38;0.70;;;0.70;;
32365;SDS011;18837;46.832;16.838;2022-09-09T14:33:05;1.20;;;0.70;;
32365;SDS011;18837;46.832;16.838;2022-09-09T14:35:31;1.00;;;0.90;;
32365;SDS011;18837;46.832;16.838;2022-09-09T14:37:58;1.07;;;0.97;;
32365;SDS011;18837;46.832;16.838;2022-09-09T14:40:25;0.93;;;0.93;;
32365;SDS011;18837;46.832;16.838;2022-09-09T14:42:52;1.57;;;0.70;;
32365;SDS011;18837;46.832;16.838;2022-09-09T14:45:23;1.47;;;0.80;;
32365;SDS011;18837;46.832;16.838;2022-09-09T14:47:50;0.90;;;0.80;;
32365;SDS011;18837;46.832;16.838;2022-09-09T14:50:17;1.67;;;0.80;;
32365;SDS011;18837;46.832;16.838;2022-09-09T14:52:43;1.43;;;1.00;;
32365;SDS011;18837;46.832;16.838;2022-09-09T14:55:09;1.33;;;0.90;;
32365;SDS011;18837;46.832;16.838;2022-09-09T14:57:36;0.70;;;0.70;;
32365;SDS011;18837;46.832;16.838;2022-09-09T15:00:04;3.07;;;0.90;;
32365;SDS011;18837;46.832;16.838;2022-09-09T15:02:36;1.17;;;1.00;;
32365;SDS011;18837;46.832;16.838;2022-09-09T15:05:03;1.10;;;0.93;;
32365;SDS011;18837;46.832;16.838;2022-09-09T15:07:29;1.13;;;0.70;;
32365;SDS011;18837;46.832;16.838;2022-09-09T15:09:57;1.27;;;0.70;;
32365;SDS011;18837;46.832;16.838;2022-09-09T15:12:23;1.83;;;0.70;;
32365;SDS011;18837;46.832;16.838;2022-09-09T15:14:49;1.10;;;0.77;;
32365;SDS011;18837;46.832;16.838;2022-09-09T15:17:34;2.77;;;0.70;;
32365;SDS011;18837;46.832;16.838;2022-09-09T15:20:20;0.60;;;0.60;;
32365;SDS011;18837;46.832;16.838;2022-09-09T15:22:49;0.70;;;0.70;;
32365;SDS011;18837;46.832;16.838;2022-09-09T15:25:16;0.87;;;0.87;;
32365;SDS011;18837;46.832;16.838;2022-09-09T15:27:43;2.07;;;0.97;;
32365;SDS011;18837;46.832;16.838;2022-09-09T15:30:09;1.60;;;0.63;;
32365;SDS011;18837;46.832;16.838;2022-09-09T15:32:35;1.97;;;0.80;;
32365;SDS011;18837;46.832;16.838;2022-09-09T15:35:00;0.73;;;0.60;;
32365;SDS011;18837;46.832;16.838;2022-09-09T15:37:39;1.40;;;0.80;;
32365;SDS011;18837;46.832;16.838;2022-09-09T15:40:04;0.90;;;0.70;;
32365;SDS011;18837;46.832;16.838;2022-09-09T15:42:31;0.60;;;0.60;;
32365;SDS011;18837;46.832;16.838;2022-09-09T15:44:57;0.83;;;0.83;;
32365;SDS011;18837;46.832;16.838;2022-09-09T15:47:22;0.90;;;0.70;;
32365;SDS011;18837;46.832;16.838;2022-09-09T15:49:48;1.03;;;0.70;;
32365;SDS011;18837;46.832;16.838;2022-09-09T15:52:32;0.40;;;0.40;;
32365;SDS011;18837;46.832;16.838;2022-09-09T15:54:58;1.30;;;0.90;;
32365;SDS011;18837;46.832;16.838;2022-09-09T15:57:26;0.93;;;0.63;;
32365;SDS011;18837;46.832;16.838;2022-09-09T15:59:51;1.10;;;0.70;;
32365;SDS011;18837;46.832;16.838;2022-09-09T16:02:17;0.70;;;0.70;;
32365;SDS011;18837;46.832;16.838;2022-09-09T16:04:43;1.70;;;0.80;;
32365;SDS011;18837;46.832;16.838;2022-09-09T16:07:09;0.87;;;0.80;;
32365;SDS011;18837;46.832;16.838;2022-09-09T16:09:34;0.77;;;0.77;;
32365;SDS011;18837;46.832;16.838;2022-09-09T16:12:01;1.17;;;0.77;;
32365;SDS011;18837;46.832;16.838;2022-09-09T16:14:31;0.80;;;0.80;;
32365;SDS011;18837;46.832;16.838;2022-09-09T16:17:00;1.10;;;1.00;;
32365;SDS011;18837;46.832;16.838;2022-09-09T16:19:27;0.70;;;0.70;;
32365;SDS011;18837;46.832;16.838;2022-09-09T16:21:53;0.80;;;0.80;;
32365;SDS011;18837;46.832;16.838;2022-09-09T16:24:19;2.13;;;0.73;;
32365;SDS011;18837;46.832;16.838;2022-09-09T16:26:52;0.97;;;0.70;;
32365;SDS011;18837;46.832;16.838;2022-09-09T16:32:16;3.23;;;0.90;;
32365;SDS011;18837;46.832;16.838;2022-09-09T16:34:41;2.60;;;0.87;;
32365;SDS011;18837;46.832;16.838;2022-09-09T16:37:08;2.60;;;0.83;;
32365;SDS011;18837;46.832;16.838;2022-09-09T16:39:33;1.57;;;1.00;;
32365;SDS011;18837;46.832;16.838;2022-09-09T16:41:59;0.97;;;0.90;;
32365;SDS011;18837;46.832;16.838;2022-09-09T16:44:26;1.57;;;0.97;;
32365;SDS011;18837;46.832;16.838;2022-09-09T16:46:58;3.97;;;1.30;;
32365;SDS011;18837;46.832;16.838;2022-09-09T16:49:25;1.83;;;0.80;;
32365;SDS011;18837;46.832;16.838;2022-09-09T16:51:52;1.87;;;0.90;;
32365;SDS011;18837;46.832;16.838;2022-09-09T16:54:20;2.10;;;1.10;;
32365;SDS011;18837;46.832;16.838;2022-09-09T16:56:47;3.60;;;0.90;;
32365;SDS011;18837;46.832;16.838;2022-09-09T16:59:14;1.70;;;1.07;;
32365;SDS011;18837;46.832;16.838;2022-09-09T17:01:56;1.23;;;0.80;;
32365;SDS011;18837;46.832;16.838;2022-09-09T17:04:34;0.80;;;0.70;;
32365;SDS011;18837;46.832;16.838;2022-09-09T17:07:00;1.97;;;0.80;;
32365;SDS011;18837;46.832;16.838;2022-09-09T17:09:26;1.10;;;0.70;;
32365;SDS011;18837;46.832;16.838;2022-09-09T17:11:53;1.33;;;0.90;;
32365;SDS011;18837;46.832;16.838;2022-09-09T17:14:20;1.57;;;1.00;;
32365;SDS011;18837;46.832;16.838;2022-09-09T17:16:47;1.07;;;0.77;;
32365;SDS011;18837;46.832;16.838;2022-09-09T17:19:31;1.30;;;0.93;;
32365;SDS011;18837;46.832;16.838;2022-09-09T17:21:58;2.13;;;0.83;;
32365;SDS011;18837;46.832;16.838;2022-09-09T17:24:23;0.77;;;0.70;;
32365;SDS011;18837;46.832;16.838;2022-09-09T17:26:51;0.70;;;0.70;;
32365;SDS011;18837;46.832;16.838;2022-09-09T17:29:19;1.20;;;0.90;;
32365;SDS011;18837;46.832;16.838;2022-09-09T17:31:44;2.30;;;1.10;;
32365;SDS011;18837;46.832;16.838;2022-09-09T17:34:10;0.87;;;0.87;;